Azalea Ace — A8ZJ6 — position and weather

sailwx.info

Track history (hours):
 
Tides and Currents Weather Stations Pressure Air Temp Water Temp Dewpoint Dewpoint Depression Visibility Wind Speed Wind Dir Waves Ship Positions

Azalea Ace

Last reported at 2015-Apr-18 12:26 UTC. Time now 2015-Apr-19 21:02 UTC.
Position N 35°21' E 140°57'.

Length 180 m; draft 8.5 m.

Type: Cargo ship. MMSI: 636015228.

Date/timePositionNaut miles runAvg speedWind from/ knotsBaromVisibWave heightAir tempDewpointWater temp
2015-Apr-18 12:26N 35°21' E 140°57'3416.3
2015-Apr-18 10:22N 35°01' E 140°23'1315.6
2015-Apr-18 09:31N 34°54' E 140°10'1715.3
2015-Apr-18 08:26N 34°48' E 139°51'1214.3
2015-Apr-18 07:34N 34°58' E 139°42'1413.6
2015-Apr-18 06:33N 35°12' E 139°45'10 9.9
2015-Apr-18 05:33N 35°21' E 139°42'7 6.5
2015-Apr-18 04:29N 35°28' E 139°41'0 0.0
2015-Apr-18 03:32N 35°28' E 139°41'0 0.0
2015-Apr-18 02:32N 35°28' E 139°41'0 0.0
2015-Apr-18 01:32N 35°28' E 139°41'0 0.0
2015-Apr-18 00:29N 35°28' E 139°41'0 0.0
2015-Apr-17 23:32N 35°28' E 139°41'0 0.1
2015-Apr-17 22:33N 35°28' E 139°41'5 5.5
2015-Apr-17 21:33N 35°25' E 139°46'1110.7
2015-Apr-17 20:33N 35°14' E 139°47'10 9.5
2015-Apr-17 19:33N 35°05' E 139°45'1010.0
2015-Apr-17 18:33N 34°55' E 139°44'1413.9
2015-Apr-17 17:33N 34°50' E 140°00'1514.7
2015-Apr-17 16:32N 34°59' E 140°15'1614.4
2015-Apr-17 15:24N 35°08' E 140°32'1613.4
2015-Apr-17 14:15N 35°18' E 140°46'1013.2
2015-Apr-17 13:30N 35°26' E 140°53'3411.2
2015-Apr-17 10:29N 35°59' E 140°59'26 1.9
2015-Apr-16 21:18N 36°22' E 140°45'4114.2
2015-Apr-16 18:26N 35°46' E 141°08'1213.5
2015-Apr-16 17:33N 35°35' E 141°03'1615.5
2015-Apr-16 16:31N 35°22' E 140°52'1615.6
2015-Apr-16 15:31N 35°09' E 140°41'1915.2
2015-Apr-16 14:17N 34°59' E 140°21'1115.3
2015-Apr-16 13:33N 34°53' E 140°10'1615.2
2015-Apr-16 12:29N 34°46' E 139°52'1415.4
2015-Apr-16 11:33N 34°40' E 139°36'1916.2
2015-Apr-16 10:25N 34°33' E 139°15'41910.5
2015-Apr-14 18:29N 34°02' E 130°50'  
Track history (hours):
 
Tides and Currents Weather Stations Pressure Air Temp Water Temp Dewpoint Dewpoint Depression Visibility Wind Speed Wind Dir Waves Ship Positions

Azalea Ace

Last reported at 2015-Apr-18 12:26 UTC. Time now 2015-Apr-19 21:02 UTC.
Position N 35°21' E 140°57'.

Length 180 m; draft 8.5 m.

Type: Cargo ship. MMSI: 636015228.

Date/timePositionNaut miles runAvg speedWind from/ knotsBaromVisibWave heightAir tempDewpointWater temp
2015-Apr-18 12:26N 35°21' E 140°57'3416.3
2015-Apr-18 10:22N 35°01' E 140°23'1315.6
2015-Apr-18 09:31N 34°54' E 140°10'1715.3
2015-Apr-18 08:26N 34°48' E 139°51'1214.3
2015-Apr-18 07:34N 34°58' E 139°42'1413.6
2015-Apr-18 06:33N 35°12' E 139°45'10 9.9
2015-Apr-18 05:33N 35°21' E 139°42'7 6.5
2015-Apr-18 04:29N 35°28' E 139°41'0 0.0
2015-Apr-18 03:32N 35°28' E 139°41'0 0.0
2015-Apr-18 02:32N 35°28' E 139°41'0 0.0
2015-Apr-18 01:32N 35°28' E 139°41'0 0.0
2015-Apr-18 00:29N 35°28' E 139°41'0 0.0
2015-Apr-17 23:32N 35°28' E 139°41'0 0.1
2015-Apr-17 22:33N 35°28' E 139°41'5 5.5
2015-Apr-17 21:33N 35°25' E 139°46'1110.7
2015-Apr-17 20:33N 35°14' E 139°47'10 9.5
2015-Apr-17 19:33N 35°05' E 139°45'1010.0
2015-Apr-17 18:33N 34°55' E 139°44'1413.9
2015-Apr-17 17:33N 34°50' E 140°00'1514.7
2015-Apr-17 16:32N 34°59' E 140°15'1614.4
2015-Apr-17 15:24N 35°08' E 140°32'1613.4
2015-Apr-17 14:15N 35°18' E 140°46'1013.2
2015-Apr-17 13:30N 35°26' E 140°53'3411.2
2015-Apr-17 10:29N 35°59' E 140°59'26 1.9
2015-Apr-16 21:18N 36°22' E 140°45'4114.2
2015-Apr-16 18:26N 35°46' E 141°08'1213.5
2015-Apr-16 17:33N 35°35' E 141°03'1615.5
2015-Apr-16 16:31N 35°22' E 140°52'1615.6
2015-Apr-16 15:31N 35°09' E 140°41'1915.2
2015-Apr-16 14:17N 34°59' E 140°21'1115.3
2015-Apr-16 13:33N 34°53' E 140°10'1615.2
2015-Apr-16 12:29N 34°46' E 139°52'1415.4
2015-Apr-16 11:33N 34°40' E 139°36'1916.2
2015-Apr-16 10:25N 34°33' E 139°15'41910.5
2015-Apr-14 18:29N 34°02' E 130°50'  

Dump ship's entire track history